Terminal Aerodrome Forecast
Issued by NWS

Current Version | Previous Version | Text Only | Print | Product List | Glossary On
Versions: 1 2 3 4 5 6 7 8 9 10 11 12 13 14 15
000
FTUS42 KTBW 191700
TAFRSW
TAF
KRSW 191740Z 1918/2018 05005KT P6SM FEW250
     FM192100 23005KT P6SM SCT250
     FM200100 VRB02KT P6SM SCT250
      TEMPO 2009/2013 5SM BR
     FM201400 14005KT P6SM FEW150 SCT250=

USA.gov is the U.S. government's official web portal to all federal, state and local government web resources and services.